Time;durP1;ratioP1;P1;durP2;ratioP2;P2;SDS_P1;SDS_P2;PMS_P1;PMS_P2;Temp;Humidity;BMP_temperature;BMP_pressure;BME280_temperature;BME280_humidity;BME280_pressure;Samples;Min_cycle;Max_cycle;Signal;HPM_P1;HPM_P2
2022/10/05 00:00:53;;;;;;;3.50;2.20;;;;;;;10.86;nan;-24120.31;5093226;28;20209;-73
2022/10/05 00:03:21;;;;;;;2.00;1.70;;;;;;;10.58;nan;-24112.69;5094244;28;20170;-72
2022/10/05 00:05:47;;;;;;;3.73;2.10;;;;;;;10.55;nan;-24111.69;5094302;28;20177;-74
2022/10/05 00:08:16;;;;;;;2.03;1.83;;;;;;;10.55;nan;-24111.84;5076249;28;20588;-71
2022/10/05 00:10:43;;;;;;;2.50;2.03;;;;;;;10.87;nan;-24120.59;5094091;28;20174;-73
2022/10/05 00:13:23;;;;;;;2.60;1.90;;;;;;;10.87;nan;-24120.59;5094508;28;20173;-75
2022/10/05 00:15:49;;;;;;;4.60;2.37;;;;;;;10.87;nan;-24120.59;5093665;28;20180;-75
2022/10/05 00:18:20;;;;;;;2.47;2.27;;;;;;;10.79;nan;-24118.47;5075592;28;20181;-75
2022/10/05 00:20:46;;;;;;;2.30;1.90;;;;;;;10.42;nan;-24108.16;5093945;28;20258;-76
2022/10/05 00:23:29;;;;;;;3.73;2.60;;;;;;;10.45;nan;-24109.03;5094080;28;20224;-73
2022/10/05 00:26:01;;;;;;;5.63;2.63;;;;;;;10.72;nan;-24116.50;5093908;28;20169;-76
2022/10/05 00:28:29;;;;;;;3.63;2.10;;;;;;;10.22;nan;-24102.53;5094425;28;20173;-75
2022/10/05 00:30:56;;;;;;;4.33;2.40;;;;;;;10.60;nan;-24113.25;5093824;28;20177;-75
2022/10/05 00:33:21;;;;;;;2.90;2.23;;;;;;;10.55;nan;-24111.84;5075602;28;20178;-75
2022/10/05 00:35:46;;;;;;;3.80;2.63;;;;;;;10.42;nan;-24108.03;5094256;28;20177;-75
2022/10/05 00:38:12;;;;;;;2.77;2.13;;;;;;;10.46;nan;-24109.31;5093774;28;20177;-74
2022/10/05 00:40:40;;;;;;;4.43;2.20;;;;;;;10.63;nan;-24113.97;5093204;28;20667;-72
2022/10/05 00:43:09;;;;;;;2.67;2.30;;;;;;;10.68;nan;-24115.38;5093431;28;20269;-72
2022/10/05 00:45:49;;;;;;;3.47;2.30;;;;;;;10.47;nan;-24109.59;5075667;28;20173;-75
2022/10/05 00:48:31;;;;;;;3.73;2.47;;;;;;;10.45;nan;-24108.88;5093633;28;20204;-72
2022/10/05 00:51:11;;;;;;;2.37;2.00;;;;;;;10.60;nan;-24113.25;5093788;28;20166;-74
2022/10/05 00:53:53;;;;;;;2.97;2.07;;;;;;;10.55;nan;-24111.69;5093405;28;20238;-75
2022/10/05 00:56:40;;;;;;;2.70;2.33;;;;;;;10.19;nan;-24101.81;5072971;28;20203;-75
2022/10/05 00:59:20;;;;;;;3.50;2.60;;;;;;;10.44;nan;-24108.75;5072776;28;20257;-74
2022/10/05 01:02:37;;;;;;;6.07;2.70;;;;;;;10.32;nan;-24105.34;5072368;28;20194;-71
2022/10/05 01:05:26;;;;;;;2.97;2.50;;;;;;;10.36;nan;-24106.34;5017323;28;20677;-74
2022/10/05 01:08:33;;;;;;;3.00;1.90;;;;;;;10.38;nan;-24107.03;5072084;28;20162;-74
2022/10/05 01:11:25;;;;;;;2.37;2.00;;;;;;;10.19;nan;-24101.69;5048744;28;20194;-71
2022/10/05 01:14:09;;;;;;;7.83;2.83;;;;;;;10.40;nan;-24107.47;5072025;28;20249;-75
2022/10/05 01:16:51;;;;;;;2.83;1.80;;;;;;;10.21;nan;-24102.25;5072145;28;20166;-75
2022/10/05 01:19:56;;;;;;;2.60;2.00;;;;;;;10.22;nan;-24102.38;5071993;28;20186;-73
2022/10/05 01:22:43;;;;;;;2.47;2.03;;;;;;;10.37;nan;-24106.75;5053039;28;20253;-76
2022/10/05 01:25:35;;;;;;;2.87;2.30;;;;;;;10.29;nan;-24104.50;5072058;28;20189;-75
2022/10/05 01:28:05;;;;;;;2.30;2.10;;;;;;;10.26;nan;-24103.66;5072418;28;20215;-76
2022/10/05 01:30:40;;;;;;;2.10;1.97;;;;;;;10.30;nan;-24104.78;5072673;28;20170;-72
2022/10/05 01:33:05;;;;;;;3.37;2.33;;;;;;;10.28;nan;-24104.06;5054399;28;20479;-77
2022/10/05 01:36:12;;;;;;;5.10;2.13;;;;;;;10.26;nan;-24103.53;5080129;28;20181;-76
2022/10/05 01:38:51;;;;;;;1.70;1.60;;;;;;;10.04;nan;-24097.59;5035340;28;20188;-74
2022/10/05 01:41:40;;;;;;;2.80;2.30;;;;;;;9.93;nan;-24094.34;5092792;28;20197;-79
2022/10/05 01:44:12;;;;;;;3.10;2.17;;;;;;;9.96;nan;-24095.31;5092991;28;20560;-74
2022/10/05 01:46:43;;;;;;;2.83;2.37;;;;;;;10.05;nan;-24097.72;5091207;28;20668;-72
2022/10/05 01:49:20;;;;;;;3.13;2.10;;;;;;;9.52;nan;-24082.91;5091327;28;20621;-75
2022/10/05 01:51:51;;;;;;;3.80;2.20;;;;;;;9.87;nan;-24092.63;5092499;28;20184;-74
2022/10/05 01:55:03;;;;;;;4.03;2.60;;;;;;;9.97;nan;-24095.59;5092262;28;20166;-73
2022/10/05 01:57:44;;;;;;;2.63;1.90;;;;;;;9.83;nan;-24091.50;5084821;28;20645;-76
2022/10/05 02:00:13;;;;;;;3.57;2.30;;;;;;;9.61;nan;-24085.56;5092312;28;20203;-73
2022/10/05 02:02:44;;;;;;;3.43;2.37;;;;;;;9.75;nan;-24089.38;5073875;28;20188;-72
2022/10/05 02:05:18;;;;;;;2.30;2.10;;;;;;;9.86;nan;-24092.34;5092556;28;20645;-73
2022/10/05 02:08:00;;;;;;;2.70;2.20;;;;;;;9.97;nan;-24095.47;5092035;28;20597;-75
2022/10/05 02:10:31;;;;;;;3.13;2.17;;;;;;;10.15;nan;-24100.69;5091828;28;20637;-72
2022/10/05 02:13:05;;;;;;;3.40;2.33;;;;;;;9.99;nan;-24096.16;5091273;28;20165;-75
2022/10/05 02:16:02;;;;;;;2.10;1.90;;;;;;;10.27;nan;-24103.94;5091743;28;20157;-73
2022/10/05 02:18:40;;;;;;;2.27;2.00;;;;;;;10.14;nan;-24100.25;5075793;28;20686;-76
2022/10/05 02:21:07;;;;;;;6.43;3.00;;;;;;;10.21;nan;-24102.25;5091874;28;20203;-76
2022/10/05 02:23:37;;;;;;;2.50;2.30;;;;;;;10.28;nan;-24104.22;5091220;28;20217;-73
2022/10/05 02:26:03;;;;;;;3.93;2.10;;;;;;;9.87;nan;-24092.78;5092316;28;20171;-71
2022/10/05 02:28:51;;;;;;;3.03;2.07;;;;;;;10.33;nan;-24105.63;5091271;28;20169;-75
2022/10/05 02:31:25;;;;;;;3.03;2.33;;;;;;;9.95;nan;-24094.91;5092080;28;20560;-76
2022/10/05 02:33:50;;;;;;;2.37;2.10;;;;;;;9.94;nan;-24094.75;5091502;28;20181;-73
2022/10/05 02:36:28;;;;;;;4.03;2.50;;;;;;;10.35;nan;-24106.19;5091705;28;20619;-73
2022/10/05 02:39:10;;;;;;;2.03;1.87;;;;;;;10.28;nan;-24104.22;5093727;28;20169;-72
2022/10/05 02:41:35;;;;;;;4.20;2.47;;;;;;;10.32;nan;-24105.34;5091778;28;20177;-72
2022/10/05 02:44:46;;;;;;;3.50;2.20;;;;;;;10.07;nan;-24098.28;5091602;28;20177;-76
2022/10/05 02:47:22;;;;;;;2.70;2.07;;;;;;;10.11;nan;-24099.41;5045286;28;20565;-73
2022/10/05 02:50:02;;;;;;;2.30;2.10;;;;;;;10.18;nan;-24101.53;5091539;28;20165;-76
2022/10/05 02:52:53;;;;;;;2.57;2.33;;;;;;;10.15;nan;-24100.69;5091483;28;20208;-76
2022/10/05 02:55:26;;;;;;;2.67;2.20;;;;;;;10.18;nan;-24101.41;5054797;28;20185;-72
2022/10/05 02:58:15;;;;;;;2.27;2.07;;;;;;;10.31;nan;-24104.94;5091665;28;20246;-73
2022/10/05 03:00:57;;;;;;;2.30;2.03;;;;;;;10.28;nan;-24104.22;5091274;28;20189;-75
2022/10/05 03:03:32;;;;;;;3.67;2.30;;;;;;;10.14;nan;-24100.25;5091577;28;20169;-74
2022/10/05 03:06:15;;;;;;;5.17;2.17;;;;;;;9.97;nan;-24095.59;5091002;28;20597;-76
2022/10/05 03:08:56;;;;;;;2.17;1.97;;;;;;;9.98;nan;-24095.75;5091358;28;20260;-75
2022/10/05 03:11:34;;;;;;;2.40;2.20;;;;;;;10.05;nan;-24097.72;5091812;28;20264;-76
2022/10/05 03:14:22;;;;;;;2.97;2.30;;;;;;;10.10;nan;-24099.28;5090857;28;20161;-72
2022/10/05 03:17:08;;;;;;;3.73;2.60;;;;;;;9.98;nan;-24095.88;5081719;28;21215;-76
2022/10/05 03:19:53;;;;;;;3.27;2.20;;;;;;;9.75;nan;-24089.53;5065113;28;20228;-71
2022/10/05 03:22:40;;;;;;;4.07;2.73;;;;;;;10.06;nan;-24098.16;5076522;28;20217;-72
2022/10/05 03:25:26;;;;;;;2.10;1.90;;;;;;;9.90;nan;-24093.47;5077027;28;20193;-73
2022/10/05 03:28:15;;;;;;;2.77;2.27;;;;;;;9.85;nan;-24092.22;5075541;28;20256;-71
2022/10/05 03:30:56;;;;;;;4.47;2.40;;;;;;;9.79;nan;-24090.38;5064841;28;20242;-74
2022/10/05 03:33:36;;;;;;;3.20;2.30;;;;;;;9.74;nan;-24089.25;5076770;28;20189;-74
2022/10/05 03:36:19;;;;;;;2.40;2.20;;;;;;;9.83;nan;-24091.50;5078846;28;20181;-76
2022/10/05 03:38:54;;;;;;;3.03;2.20;;;;;;;9.54;nan;-24083.47;5080417;28;20293;-73
2022/10/05 03:41:30;;;;;;;4.03;2.80;;;;;;;9.74;nan;-24089.25;5080666;28;20204;-74
2022/10/05 03:44:18;;;;;;;3.27;2.53;;;;;;;9.77;nan;-24090.09;5068737;28;20181;-74
2022/10/05 03:46:49;;;;;;;3.43;2.23;;;;;;;9.84;nan;-24091.94;5067130;28;20567;-74
2022/10/05 03:49:30;;;;;;;3.10;2.70;;;;;;;9.66;nan;-24086.84;5078811;28;20272;-73
2022/10/05 03:52:02;;;;;;;2.60;2.40;;;;;;;9.61;nan;-24085.56;5079491;28;20177;-74
2022/10/05 03:54:40;;;;;;;7.70;2.27;;;;;;;9.50;nan;-24082.47;5080126;28;20259;-74
2022/10/05 03:57:39;;;;;;;2.53;2.03;;;;;;;9.61;nan;-24085.44;5080191;28;20268;-72
2022/10/05 04:00:17;;;;;;;3.23;2.10;;;;;;;9.82;nan;-24091.22;5039078;28;20395;-74
2022/10/05 04:03:06;;;;;;;2.77;2.20;;;;;;;9.74;nan;-24089.25;5079552;28;20223;-73
2022/10/05 04:05:50;;;;;;;2.97;2.10;;;;;;;9.44;nan;-24080.78;5079517;28;20200;-73
2022/10/05 04:08:40;;;;;;;5.37;2.47;;;;;;;9.21;nan;-24074.25;5078961;28;20197;-76
2022/10/05 04:11:16;;;;;;;3.10;2.50;;;;;;;9.43;nan;-24080.50;5078454;28;20185;-75
2022/10/05 04:13:50;;;;;;;2.87;2.30;;;;;;;9.60;nan;-24085.16;5078823;28;20183;-74
2022/10/05 04:16:27;;;;;;;4.37;2.90;;;;;;;9.20;nan;-24074.13;5079811;28;20189;-72
2022/10/05 04:18:56;;;;;;;4.40;2.23;;;;;;;9.45;nan;-24081.06;5079210;28;20169;-74
2022/10/05 04:21:33;;;;;;;3.20;2.70;;;;;;;9.54;nan;-24083.47;5080046;28;20245;-74
2022/10/05 04:24:09;;;;;;;3.27;2.50;;;;;;;9.37;nan;-24078.66;5094500;28;20250;-78
2022/10/05 04:26:48;;;;;;;4.07;3.03;;;;;;;9.14;nan;-24072.44;5071656;28;20660;-78
2022/10/05 04:29:32;;;;;;;4.57;3.00;;;;;;;9.46;nan;-24081.34;5094320;28;20185;-75
2022/10/05 04:32:23;;;;;;;4.03;2.90;;;;;;;9.46;nan;-24081.19;5076716;28;20473;-73
2022/10/05 04:34:57;;;;;;;2.80;2.33;;;;;;;9.42;nan;-24080.22;5061551;28;20205;-75
2022/10/05 04:37:40;;;;;;;2.83;2.30;;;;;;;9.50;nan;-24082.31;5093356;28;20185;-73
2022/10/05 04:40:29;;;;;;;4.30;2.53;;;;;;;9.45;nan;-24081.06;5092917;28;20197;-76
2022/10/05 04:43:18;;;;;;;2.83;2.27;;;;;;;9.59;nan;-24085.00;5092491;28;20165;-76
2022/10/05 04:46:02;;;;;;;4.43;2.70;;;;;;;9.61;nan;-24085.44;5092652;28;20169;-76
2022/10/05 04:48:43;;;;;;;4.07;2.50;;;;;;;9.60;nan;-24085.16;5074098;28;20245;-76
2022/10/05 04:51:33;;;;;;;4.67;3.50;;;;;;;9.71;nan;-24088.25;5084069;28;20245;-75
2022/10/05 04:54:19;;;;;;;4.03;2.73;;;;;;;9.87;nan;-24092.78;5091132;28;20173;-71
2022/10/05 04:56:52;;;;;;;3.83;2.40;;;;;;;9.52;nan;-24083.03;5092469;28;20185;-74
2022/10/05 04:59:17;;;;;;;3.47;2.37;;;;;;;9.86;nan;-24092.50;5092786;28;20189;-72
2022/10/05 05:01:54;;;;;;;5.63;2.77;;;;;;;9.47;nan;-24081.47;5092784;28;20208;-72
2022/10/05 05:04:28;;;;;;;2.40;2.20;;;;;;;10.08;nan;-24098.56;5092295;28;20660;-75
2022/10/05 05:07:35;;;;;;;3.03;2.73;;;;;;;9.80;nan;-24090.81;5086670;28;20204;-74
2022/10/05 05:10:25;;;;;;;4.97;2.23;;;;;;;10.34;nan;-24105.91;5091921;28;20562;-72
2022/10/05 05:13:13;;;;;;;3.07;2.47;;;;;;;10.45;nan;-24109.03;5091721;28;20172;-74
2022/10/05 05:15:45;;;;;;;3.47;2.40;;;;;;;10.65;nan;-24114.53;5067307;28;20173;-76
2022/10/05 05:18:20;;;;;;;2.97;2.00;;;;;;;10.80;nan;-24118.75;5090316;28;20174;-75
2022/10/05 05:21:00;;;;;;;2.97;2.43;;;;;;;10.90;nan;-24121.44;5092091;28;20196;-75
2022/10/05 05:23:37;;;;;;;2.87;2.40;;;;;;;10.97;nan;-24123.53;5091178;28;20216;-73
2022/10/05 05:26:29;;;;;;;3.13;2.30;;;;;;;11.31;nan;-24132.84;5089384;28;20188;-76
2022/10/05 05:29:12;;;;;;;2.07;1.87;;;;;;;11.41;nan;-24135.66;5067502;28;20250;-74
2022/10/05 05:31:43;;;;;;;2.30;2.10;;;;;;;11.58;nan;-24140.47;5089672;28;20169;-75
2022/10/05 05:34:32;;;;;;;3.33;2.17;;;;;;;11.63;nan;-24141.72;5091544;28;20170;-74
2022/10/05 05:37:17;;;;;;;2.03;1.83;;;;;;;11.82;nan;-24147.22;5053629;28;20779;-75
2022/10/05 05:40:04;;;;;;;1.77;1.52;;;;;;;11.77;nan;-24145.69;5071391;28;20261;-73
2022/10/05 05:42:43;;;;;;;2.92;1.90;;;;;;;12.45;nan;-24164.69;5072065;28;20170;-73
2022/10/05 05:45:22;;;;;;;2.00;1.80;;;;;;;12.40;nan;-24163.41;5071636;28;20166;-75
2022/10/05 05:47:57;;;;;;;3.08;2.17;;;;;;;12.50;nan;-24166.09;5072015;28;20194;-76
2022/10/05 05:50:46;;;;;;;2.88;1.90;;;;;;;12.60;nan;-24168.75;5071807;28;20172;-74
2022/10/05 05:53:18;;;;;;;4.88;2.15;;;;;;;12.98;nan;-24179.44;5052777;28;20246;-75
2022/10/05 05:55:52;;;;;;;3.38;2.47;;;;;;;12.95;nan;-24178.47;5053541;28;20170;-76
2022/10/05 05:58:24;;;;;;;2.80;1.90;;;;;;;13.23;nan;-24186.34;5070488;28;20256;-75
2022/10/05 06:00:58;;;;;;;3.20;2.13;;;;;;;12.97;nan;-24179.16;5071480;28;20212;-77
2022/10/05 06:03:26;;;;;;;3.88;2.22;;;;;;;13.34;nan;-24189.28;5070146;28;20586;-76
2022/10/05 06:05:56;;;;;;;2.65;2.00;;;;;;;13.44;nan;-24192.25;5070393;28;20261;-73
2022/10/05 06:08:28;;;;;;;3.13;2.15;;;;;;;13.20;nan;-24185.50;5053651;28;20170;-73
2022/10/05 06:11:07;;;;;;;2.90;2.10;;;;;;;13.38;nan;-24190.41;5053750;28;20243;-75
2022/10/05 06:13:37;;;;;;;2.50;1.80;;;;;;;13.53;nan;-24194.63;5074206;28;20185;-72
2022/10/05 06:16:25;;;;;;;2.33;2.13;;;;;;;13.95;nan;-24206.41;5074116;28;20185;-73
2022/10/05 06:18:56;;;;;;;2.60;2.08;;;;;;;14.03;nan;-24208.53;5071955;28;20185;-76
2022/10/05 06:21:37;;;;;;;2.25;2.05;;;;;;;13.95;nan;-24206.41;5096832;28;20192;-72
2022/10/05 06:24:12;;;;;;;2.30;2.10;;;;;;;14.28;nan;-24215.41;5091900;28;20229;-74
2022/10/05 06:27:14;;;;;;;2.63;1.85;;;;;;;14.39;nan;-24218.47;5092205;28;20161;-76
2022/10/05 06:30:03;;;;;;;2.85;1.75;;;;;;;14.30;nan;-24216.09;5071670;28;20169;-73
2022/10/05 06:32:32;;;;;;;2.35;2.05;;;;;;;14.46;nan;-24220.44;5072124;28;20172;-73
2022/10/05 06:35:11;;;;;;;3.60;2.35;;;;;;;14.48;nan;-24221.00;5072056;28;20641;-75
2022/10/05 06:37:58;;;;;;;3.97;2.20;;;;;;;14.56;nan;-24223.25;5071428;28;20201;-75
2022/10/05 06:40:45;;;;;;;1.83;1.65;;;;;;;14.71;nan;-24227.47;5053644;28;20233;-73
2022/10/05 06:43:37;;;;;;;2.50;2.03;;;;;;;14.69;nan;-24226.91;5071335;28;20169;-74
2022/10/05 06:46:31;;;;;;;2.40;1.90;;;;;;;14.91;nan;-24233.06;5071804;28;20182;-75
2022/10/05 06:48:59;;;;;;;3.13;2.35;;;;;;;14.71;nan;-24227.47;5069213;28;20715;-76
2022/10/05 06:51:50;;;;;;;3.17;2.42;;;;;;;14.79;nan;-24229.69;5053856;28;20589;-75
2022/10/05 06:54:42;;;;;;;2.78;2.08;;;;;;;15.00;nan;-24235.44;5071676;28;20186;-73
2022/10/05 06:57:26;;;;;;;2.63;2.10;;;;;;;15.07;nan;-24237.28;5071473;28;20178;-74
2022/10/05 07:00:04;;;;;;;2.30;2.00;;;;;;;15.21;nan;-24241.19;5070888;28;20197;-74
2022/10/05 07:02:44;;;;;;;2.22;1.67;;;;;;;15.21;nan;-24241.34;5071198;28;20177;-75
2022/10/05 07:06:02;;;;;;;2.50;2.05;;;;;;;15.64;nan;-24253.22;5071754;28;20176;-73
2022/10/05 07:08:51;;;;;;;3.05;2.20;;;;;;;15.77;nan;-24256.72;4990120;28;20828;-74
2022/10/05 07:11:26;;;;;;;3.35;2.10;;;;;;;15.77;nan;-24256.72;5074653;28;20158;-74
2022/10/05 07:14:01;;;;;;;2.25;1.77;;;;;;;15.32;nan;-24244.28;5075487;28;20165;-73
2022/10/05 07:17:03;;;;;;;3.70;2.35;;;;;;;15.66;nan;-24253.66;5058416;28;20169;-75
2022/10/05 07:20:10;;;;;;;3.78;2.45;;;;;;;15.70;nan;-24254.91;5078282;28;20169;-72
2022/10/05 07:22:57;;;;;;;2.40;1.90;;;;;;;15.94;nan;-24261.34;5076515;28;20700;-72
2022/10/05 07:25:29;;;;;;;2.50;2.05;;;;;;;16.05;nan;-24264.56;5060608;28;20503;-74
2022/10/05 07:28:14;;;;;;;3.13;2.00;;;;;;;16.17;nan;-24267.94;5061702;28;20192;-73
2022/10/05 07:30:51;;;;;;;2.33;1.98;;;;;;;16.19;nan;-24268.34;5079405;28;20166;-73
2022/10/05 07:33:23;;;;;;;2.17;1.80;;;;;;;16.40;nan;-24274.22;5078647;28;20161;-73
2022/10/05 07:38:58;;;;;;;2.33;1.95;;;;;;;16.38;nan;-24273.50;5076562;28;20211;-76
2022/10/05 07:41:51;;;;;;;3.35;2.22;;;;;;;16.27;nan;-24270.59;5076039;28;20684;-75
2022/10/05 07:44:29;;;;;;;3.53;2.30;;;;;;;16.98;nan;-24290.16;5076153;28;20178;-75
2022/10/05 07:47:08;;;;;;;2.53;1.98;;;;;;;16.64;nan;-24280.94;5076706;28;20267;-76
2022/10/05 07:50:08;;;;;;;2.45;2.25;;;;;;;16.99;nan;-24290.56;5058362;28;20185;-72
2022/10/05 07:52:47;;;;;;;4.78;2.20;;;;;;;16.79;nan;-24285.13;5003743;28;20711;-72
2022/10/05 07:55:32;;;;;;;2.22;1.70;;;;;;;17.05;nan;-24292.25;5075410;28;20231;-77
2022/10/05 07:58:19;;;;;;;2.35;1.92;;;;;;;17.19;nan;-24296.00;5075243;28;20197;-72
2022/10/05 08:01:12;;;;;;;6.47;2.20;;;;;;;17.54;nan;-24305.78;5072786;28;20190;-75
2022/10/05 08:03:37;;;;;;;2.45;2.10;;;;;;;17.57;nan;-24306.47;5064341;28;20182;-74
2022/10/05 08:06:06;;;;;;;3.05;2.10;;;;;;;17.55;nan;-24306.06;5074287;28;20238;-75
2022/10/05 08:08:56;;;;;;;2.28;1.83;;;;;;;17.46;nan;-24303.56;5074629;28;20174;-72
2022/10/05 08:11:46;;;;;;;2.80;2.30;;;;;;;17.87;nan;-24314.84;5074685;28;20260;-78
2022/10/05 08:14:36;;;;;;;3.00;1.77;;;;;;;17.72;nan;-24310.66;5074874;28;20170;-73
2022/10/05 08:17:11;;;;;;;1.75;1.63;;;;;;;17.76;nan;-24311.78;5033374;28;20222;-73
2022/10/05 08:20:01;;;;;;;2.80;1.98;;;;;;;17.86;nan;-24314.44;5073860;28;20255;-75
2022/10/05 08:22:39;;;;;;;3.15;2.10;;;;;;;17.59;nan;-24307.19;5080552;28;20604;-73
2022/10/05 08:25:18;;;;;;;2.30;1.92;;;;;;;17.61;nan;-24307.75;5094403;28;20180;-76
2022/10/05 08:28:04;;;;;;;2.00;1.60;;;;;;;17.77;nan;-24312.06;5094242;28;20169;-74
2022/10/05 08:30:34;;;;;;;3.05;1.80;;;;;;;17.48;nan;-24303.97;5094234;28;20209;-76
2022/10/05 08:33:11;;;;;;;1.73;1.52;;;;;;;17.98;nan;-24317.78;5094512;28;20173;-77
2022/10/05 08:35:49;;;;;;;2.25;1.85;;;;;;;18.16;nan;-24322.81;5094008;28;20153;-76
2022/10/05 08:38:24;;;;;;;2.03;1.75;;;;;;;18.09;nan;-24320.84;5094023;28;20180;-75
2022/10/05 08:41:06;;;;;;;2.30;1.50;;;;;;;18.46;nan;-24331.16;5094178;28;20205;-76
2022/10/05 08:43:53;;;;;;;1.90;1.42;;;;;;;18.52;nan;-24332.69;5093792;28;20165;-76
2022/10/05 08:46:54;;;;;;;2.45;1.90;;;;;;;18.47;nan;-24331.44;5075246;28;20169;-76
2022/10/05 08:49:38;;;;;;;1.90;1.65;;;;;;;18.85;nan;-24341.88;5048252;28;20687;-73
2022/10/05 08:52:22;;;;;;;1.95;1.75;;;;;;;18.88;nan;-24342.56;5093713;28;20632;-75
2022/10/05 08:55:17;;;;;;;2.35;1.50;;;;;;;18.74;nan;-24338.81;5093244;28;20238;-75
2022/10/05 08:57:43;;;;;;;1.60;1.30;;;;;;;18.71;nan;-24338.00;5075703;28;20173;-74
2022/10/05 09:00:11;;;;;;;4.05;1.70;;;;;;;18.59;nan;-24334.50;5093191;28;20262;-76
2022/10/05 09:03:04;;;;;;;2.38;1.90;;;;;;;18.63;nan;-24335.63;5091985;28;20177;-74
2022/10/05 09:05:57;;;;;;;2.33;1.52;;;;;;;18.46;nan;-24331.16;5091441;28;20567;-76
2022/10/05 09:08:56;;;;;;;1.98;1.75;;;;;;;18.91;nan;-24343.41;5093040;28;20165;-75
2022/10/05 09:11:59;;;;;;;1.90;1.40;;;;;;;18.58;nan;-24334.22;5074802;28;20234;-73
2022/10/05 09:15:01;;;;;;;1.70;1.60;;;;;;;18.76;nan;-24339.38;5092993;28;20252;-75
2022/10/05 09:17:36;;;;;;;2.33;1.77;;;;;;;19.29;nan;-24353.84;5087334;28;20185;-75
2022/10/05 09:20:25;;;;;;;3.13;1.70;;;;;;;19.60;nan;-24362.34;5092202;28;20610;-74
2022/10/05 09:22:58;;;;;;;2.40;1.73;;;;;;;19.50;nan;-24359.69;5074384;28;20229;-76
2022/10/05 09:25:41;;;;;;;1.90;1.63;;;;;;;19.57;nan;-24361.66;5092829;28;20179;-76
2022/10/05 09:28:50;;;;;;;2.60;1.55;;;;;;;19.85;nan;-24369.44;5092842;28;20558;-74
2022/10/05 09:31:42;;;;;;;2.33;1.80;;;;;;;19.57;nan;-24361.50;4974269;28;20564;-73
2022/10/05 09:34:13;;;;;;;1.70;1.50;;;;;;;20.06;nan;-24375.13;4989652;28;20177;-75
2022/10/05 09:36:57;;;;;;;1.63;1.40;;;;;;;20.11;nan;-24376.38;5062812;28;20629;-73
2022/10/05 09:39:51;;;;;;;2.65;1.42;;;;;;;19.76;nan;-24366.78;5073412;28;20668;-76
2022/10/05 09:42:33;;;;;;;3.70;1.60;;;;;;;19.91;nan;-24370.81;5092797;28;20165;-73
2022/10/05 09:45:35;;;;;;;2.67;1.77;;;;;;;20.06;nan;-24375.00;5092590;28;20204;-73
2022/10/05 09:48:20;;;;;;;2.33;1.73;;;;;;;19.52;nan;-24360.13;5092723;28;20176;-73
2022/10/05 09:51:23;;;;;;;1.60;1.50;;;;;;;19.91;nan;-24370.81;5074423;28;20180;-75
2022/10/05 09:54:28;;;;;;;1.70;1.52;;;;;;;19.97;nan;-24372.63;5092361;28;20169;-74
2022/10/05 09:57:08;;;;;;;1.92;1.70;;;;;;;20.31;nan;-24381.94;5040947;28;20185;-73
2022/10/05 10:00:14;;;;;;;1.95;1.67;;;;;;;20.31;nan;-24381.94;5091938;28;20611;-75
2022/10/05 10:02:58;;;;;;;1.60;1.42;;;;;;;20.43;nan;-24385.13;5078999;28;20527;-75
2022/10/05 10:05:46;;;;;;;2.05;1.58;;;;;;;20.41;nan;-24384.56;5092445;28;20169;-74
2022/10/05 10:08:29;;;;;;;2.97;1.73;;;;;;;20.76;nan;-24394.16;5092641;28;20217;-74
2022/10/05 10:11:10;;;;;;;2.15;1.50;;;;;;;20.85;nan;-24396.78;5092575;28;20177;-74
2022/10/05 10:13:52;;;;;;;1.77;1.52;;;;;;;20.81;nan;-24395.53;5092415;28;20212;-75
2022/10/05 10:16:24;;;;;;;1.58;1.35;;;;;;;20.72;nan;-24393.19;5091744;28;20173;-75
2022/10/05 10:19:39;;;;;;;1.52;1.40;;;;;;;20.39;nan;-24384.03;5092239;28;20170;-76
2022/10/05 10:22:32;;;;;;;1.63;1.33;;;;;;;20.65;nan;-24391.38;4989432;28;20196;-77
2022/10/05 10:25:19;;;;;;;1.52;1.38;;;;;;;20.76;nan;-24394.28;5069588;28;20239;-75
2022/10/05 10:28:22;;;;;;;1.33;1.20;;;;;;;20.88;nan;-24397.47;5068364;28;20194;-76
2022/10/05 10:30:50;;;;;;;1.85;1.35;;;;;;;21.14;nan;-24404.69;5079960;28;20181;-76
2022/10/05 10:33:37;;;;;;;1.90;1.48;;;;;;;21.17;nan;-24405.38;5071367;28;20625;-77
2022/10/05 10:36:21;;;;;;;1.70;1.40;;;;;;;21.24;nan;-24407.31;5071721;28;20166;-73
2022/10/05 10:39:21;;;;;;;1.30;1.20;;;;;;;21.31;nan;-24409.28;5071631;28;20174;-77
2022/10/05 10:42:04;;;;;;;1.27;1.17;;;;;;;21.49;nan;-24414.41;5071214;28;20217;-74
2022/10/05 10:44:52;;;;;;;1.80;0.93;;;;;;;21.49;nan;-24414.41;5070604;28;20173;-75
2022/10/05 10:47:35;;;;;;;1.35;1.20;;;;;;;21.59;nan;-24417.03;5071249;28;20169;-75
2022/10/05 10:50:38;;;;;;;1.45;1.23;;;;;;;21.18;nan;-24405.81;5070045;28;20630;-74
2022/10/05 10:53:23;;;;;;;1.58;1.48;;;;;;;21.00;nan;-24400.81;5071692;28;20230;-74
2022/10/05 10:56:26;;;;;;;1.83;1.27;;;;;;;21.28;nan;-24408.44;5071566;28;20216;-76
2022/10/05 10:59:15;;;;;;;1.27;1.10;;;;;;;21.17;nan;-24405.38;5071404;28;20173;-74
2022/10/05 11:02:05;;;;;;;2.17;1.20;;;;;;;21.25;nan;-24407.75;5071867;28;20271;-74
2022/10/05 11:05:07;;;;;;;2.25;1.63;;;;;;;21.13;nan;-24404.56;5071562;28;20178;-75
2022/10/05 11:08:00;;;;;;;1.67;1.20;;;;;;;20.94;nan;-24399.16;5071710;28;20170;-73
2022/10/05 11:10:57;;;;;;;1.42;1.30;;;;;;;20.69;nan;-24392.47;5071351;28;20174;-73
2022/10/05 11:13:41;;;;;;;1.40;1.23;;;;;;;20.88;nan;-24397.47;5071479;28;20281;-74
2022/10/05 11:16:18;;;;;;;1.50;1.40;;;;;;;20.84;nan;-24396.50;5071160;28;20162;-74
2022/10/05 11:19:09;;;;;;;4.30;1.20;;;;;;;20.86;nan;-24397.06;5071938;28;20186;-76
2022/10/05 11:22:00;;;;;;;1.30;1.20;;;;;;;20.80;nan;-24395.25;5070897;28;20258;-76
2022/10/05 11:25:15;;;;;;;2.22;1.40;;;;;;;20.96;nan;-24399.69;5071525;28;20665;-75
2022/10/05 11:28:12;;;;;;;1.35;1.20;;;;;;;20.81;nan;-24395.66;5009088;28;20249;-73
2022/10/05 11:31:15;;;;;;;1.80;1.48;;;;;;;20.48;nan;-24386.66;5071320;28;20577;-75
2022/10/05 11:33:55;;;;;;;1.90;1.40;;;;;;;20.62;nan;-24390.41;5070988;28;20170;-73
2022/10/05 11:36:39;;;;;;;1.75;1.23;;;;;;;20.64;nan;-24391.09;5071268;28;20555;-76
2022/10/05 11:39:25;;;;;;;2.08;1.48;;;;;;;20.77;nan;-24394.56;5070629;28;20656;-78
2022/10/05 11:42:08;;;;;;;1.55;1.45;;;;;;;20.95;nan;-24399.41;5039351;28;20190;-75
2022/10/05 11:45:11;;;;;;;3.55;1.40;;;;;;;21.11;nan;-24404.00;5086544;28;20178;-74
2022/10/05 11:48:21;;;;;;;2.72;1.40;;;;;;;21.07;nan;-24402.75;5071080;28;20192;-75
2022/10/05 11:51:14;;;;;;;1.83;1.55;;;;;;;21.13;nan;-24404.56;5046554;28;20185;-58
2022/10/05 11:53:51;;;;;;;1.95;1.52;;;;;;;20.68;nan;-24392.19;5071218;28;20178;-59
2022/10/05 11:56:22;;;;;;;2.13;1.58;;;;;;;20.71;nan;-24392.91;5071588;28;20158;-58
2022/10/05 11:59:01;;;;;;;1.88;1.45;;;;;;;20.87;nan;-24397.34;5074774;28;20227;-59
2022/10/05 12:01:36;;;;;;;1.67;1.40;;;;;;;20.01;nan;-24373.72;5074511;28;20295;-57
2022/10/05 12:04:14;;;;;;;2.60;1.80;;;;;;;21.14;nan;-24404.84;5074371;28;20172;-57
2022/10/05 12:06:51;;;;;;;2.38;1.50;;;;;;;21.41;nan;-24412.03;5074129;28;20213;-58
2022/10/05 12:09:31;;;;;;;2.47;1.80;;;;;;;21.65;nan;-24418.69;5074523;28;20174;-57
2022/10/05 12:12:02;;;;;;;1.73;1.45;;;;;;;21.77;nan;-24421.88;5074342;28;20231;-58
2022/10/05 12:14:39;;;;;;;3.17;1.98;;;;;;;21.89;nan;-24425.34;5074777;28;20170;-57
2022/10/05 12:17:05;;;;;;;1.90;1.52;;;;;;;21.82;nan;-24423.25;5074171;28;20576;-57
2022/10/05 12:20:15;;;;;;;4.50;1.92;;;;;;;21.75;nan;-24421.47;5073868;28;20209;-57
2022/10/05 12:22:49;;;;;;;2.08;1.45;;;;;;;21.20;nan;-24406.34;5077982;28;20224;-58
2022/10/05 12:25:21;;;;;;;1.95;1.48;;;;;;;21.38;nan;-24411.22;5094041;28;20639;-58
2022/10/05 12:27:50;;;;;;;1.98;1.50;;;;;;;21.28;nan;-24408.44;5094154;28;20181;-57
2022/10/05 12:30:48;;;;;;;2.55;1.60;;;;;;;21.45;nan;-24413.16;5094355;28;20607;-58
2022/10/05 12:33:38;;;;;;;2.10;1.60;;;;;;;21.46;nan;-24413.44;5094177;28;20169;-58
2022/10/05 12:36:27;;;;;;;1.73;1.45;;;;;;;21.45;nan;-24413.16;5094145;28;20257;-59
2022/10/05 12:39:11;;;;;;;2.45;1.73;;;;;;;21.54;nan;-24415.78;5073618;28;20198;-57
2022/10/05 12:42:12;;;;;;;1.73;1.48;;;;;;;21.65;nan;-24418.69;5073170;28;20691;-57
2022/10/05 12:44:45;;;;;;;1.92;1.52;;;;;;;21.73;nan;-24420.91;5073369;28;20675;-57
2022/10/05 12:47:32;;;;;;;2.55;1.70;;;;;;;22.05;nan;-24429.63;5073190;28;20196;-61
2022/10/05 12:50:20;;;;;;;2.83;1.60;;;;;;;21.84;nan;-24423.94;5072915;28;20254;-59
2022/10/05 12:52:55;;;;;;;1.95;1.50;;;;;;;21.42;nan;-24412.31;5067010;28;20290;-57
2022/10/05 12:55:20;;;;;;;1.55;1.33;;;;;;;21.25;nan;-24407.59;5073160;28;20164;-57
2022/10/05 12:58:04;;;;;;;2.00;1.67;;;;;;;21.35;nan;-24410.50;5073090;28;20551;-57
2022/10/05 13:00:33;;;;;;;1.58;1.40;;;;;;;21.30;nan;-24409.13;5072890;28;20258;-57